Time;durP1;ratioP1;P1;durP2;ratioP2;P2;SDS_P1;SDS_P2;PMS_P1;PMS_P2;Temp;Humidity;BMP_temperature;BMP_pressure;BME280_temperature;BME280_humidity;BME280_pressure;Samples;Min_cycle;Max_cycle;Signal;HPM_P1;HPM_P2
2022/03/30 00:00:15;;;;;;;41.53;18.25;;;5.70;99.90;;;;;;5097570;27;20031;-78
2022/03/30 00:02:42;;;;;;;31.93;17.57;;;5.70;99.90;;;;;;5095228;28;20044;-78
2022/03/30 00:05:09;;;;;;;25.80;15.03;;;5.70;99.90;;;;;;5094056;28;20036;-78
2022/03/30 00:07:35;;;;;;;32.23;17.30;;;5.70;99.90;;;;;;5075863;28;20062;-78
2022/03/30 00:10:03;;;;;;;30.70;15.17;;;5.70;99.90;;;;;;5114662;27;20039;-81
2022/03/30 00:12:30;;;;;;;30.35;14.20;;;5.70;99.90;;;;;;5126339;27;20027;-81
2022/03/30 00:14:57;;;;;;;32.37;17.80;;;5.70;99.90;;;;;;5113249;27;20035;-81
2022/03/30 00:17:23;;;;;;;36.47;15.40;;;5.60;99.90;;;;;;5114337;27;20490;-81
2022/03/30 00:19:50;;;;;;;31.08;16.33;;;5.60;99.90;;;;;;5094668;27;20027;-81
2022/03/30 00:22:16;;;;;;;35.55;17.50;;;5.60;99.90;;;;;;5097033;28;20352;-80
2022/03/30 00:24:45;;;;;;;38.25;16.08;;;5.60;99.90;;;;;;5114159;27;20039;-81
2022/03/30 00:27:12;;;;;;;35.00;15.33;;;5.60;99.90;;;;;;5096984;27;20030;-80
2022/03/30 00:29:39;;;;;;;32.23;15.50;;;5.50;99.90;;;;;;5098345;27;20471;-79
2022/03/30 00:32:06;;;;;;;43.10;18.55;;;5.50;99.90;;;;;;5097210;27;20071;-80
2022/03/30 00:34:33;;;;;;;29.80;14.73;;;5.50;99.90;;;;;;5114586;27;20032;-80
2022/03/30 00:37:06;;;;;;;31.90;15.80;;;5.40;99.90;;;;;;5097091;27;20050;-80
2022/03/30 00:39:35;;;;;;;39.50;16.50;;;5.40;99.90;;;;;;5096042;28;20039;-80
2022/03/30 00:42:23;;;;;;;29.97;15.30;;;5.40;99.90;;;;;;5094272;28;20402;-80
2022/03/30 00:44:52;;;;;;;27.07;13.73;;;5.30;99.90;;;;;;5096774;28;20050;-80
2022/03/30 00:47:36;;;;;;;35.15;16.67;;;5.30;99.90;;;;;;5094440;28;20039;-82
2022/03/30 00:50:08;;;;;;;34.70;16.95;;;5.20;99.90;;;;;;5115546;27;20039;-81
2022/03/30 00:52:47;;;;;;;32.40;17.13;;;5.20;99.90;;;;;;5111304;28;20039;-81
2022/03/30 00:55:17;;;;;;;35.63;16.98;;;5.20;99.90;;;;;;5097577;27;20486;-80
2022/03/30 00:57:49;;;;;;;34.73;15.63;;;5.20;99.90;;;;;;5110650;28;20036;-81
2022/03/30 01:00:20;;;;;;;42.97;18.00;;;5.20;99.90;;;;;;5078151;28;20036;-81
2022/03/30 01:02:49;;;;;;;32.50;16.87;;;5.10;99.90;;;;;;5095772;28;20390;-81
2022/03/30 01:05:16;;;;;;;31.37;16.47;;;5.00;99.90;;;;;;5079277;28;20474;-81
2022/03/30 01:07:43;;;;;;;26.87;13.80;;;5.10;99.90;;;;;;5110429;27;20046;-81
2022/03/30 01:10:15;;;;;;;33.93;15.03;;;5.10;99.90;;;;;;5111937;28;20038;-80
2022/03/30 01:12:54;;;;;;;32.43;15.60;;;5.10;99.90;;;;;;5096992;28;20035;-80
2022/03/30 01:15:23;;;;;;;31.17;14.30;;;5.10;99.90;;;;;;5093658;28;20031;-80
2022/03/30 01:17:52;;;;;;;30.27;13.67;;;5.10;99.90;;;;;;5109799;28;20048;-81
2022/03/30 01:20:22;;;;;;;31.43;14.30;;;5.20;99.90;;;;;;5096187;28;20039;-80
2022/03/30 01:22:49;;;;;;;33.63;16.30;;;5.20;99.90;;;;;;5117064;27;20023;-80
2022/03/30 01:25:16;;;;;;;29.75;15.25;;;5.20;99.90;;;;;;5109807;28;20040;-81
2022/03/30 01:27:45;;;;;;;35.00;15.83;;;5.30;99.90;;;;;;5110153;27;20520;-80
2022/03/30 01:33:05;;;;;;;34.53;15.97;;;5.20;99.90;;;;;;5112412;27;20039;-80
2022/03/30 01:35:33;;;;;;;40.13;16.17;;;5.20;99.90;;;;;;5092483;28;20487;-81
2022/03/30 01:38:00;;;;;;;28.90;14.93;;;5.10;99.90;;;;;;5076073;28;20477;-81
2022/03/30 01:40:27;;;;;;;34.07;15.30;;;5.10;99.90;;;;;;5115975;27;20027;-81
2022/03/30 01:42:53;;;;;;;29.67;13.90;;;5.00;99.90;;;;;;5110222;28;20039;-81
2022/03/30 01:45:20;;;;;;;29.73;13.07;;;5.00;99.90;;;;;;5093662;28;20047;-82
2022/03/30 01:48:00;;;;;;;33.20;14.93;;;4.90;99.90;;;;;;5109547;27;20039;-81
2022/03/30 01:50:31;;;;;;;23.10;11.37;;;4.80;99.90;;;;;;5095560;28;20406;-80
2022/03/30 01:52:59;;;;;;;27.57;11.80;;;4.80;99.90;;;;;;5113016;28;20487;-81
2022/03/30 01:55:26;;;;;;;32.17;14.27;;;4.80;99.90;;;;;;5095691;28;20040;-82
2022/03/30 01:57:53;;;;;;;19.40;11.53;;;4.70;99.90;;;;;;5091646;28;20437;-81
2022/03/30 02:00:19;;;;;;;28.53;13.03;;;4.80;99.90;;;;;;5095985;28;20505;-82
2022/03/30 02:02:46;;;;;;;29.13;13.17;;;4.70;99.90;;;;;;5111629;28;20034;-81
2022/03/30 02:05:12;;;;;;;24.57;12.10;;;4.70;99.90;;;;;;5099927;28;20039;-82
2022/03/30 02:07:39;;;;;;;22.90;12.10;;;4.60;99.90;;;;;;5097845;28;20039;-79
2022/03/30 02:10:08;;;;;;;22.00;11.90;;;4.60;99.90;;;;;;5114403;28;20036;-79
2022/03/30 02:12:35;;;;;;;26.47;13.03;;;4.60;99.90;;;;;;5112220;28;20036;-81
2022/03/30 02:15:01;;;;;;;30.53;11.80;;;4.60;99.90;;;;;;5115209;28;20052;-81
2022/03/30 02:17:29;;;;;;;26.87;12.87;;;4.50;99.90;;;;;;5092750;28;20075;-81
2022/03/30 02:19:58;;;;;;;30.55;15.82;;;4.50;99.90;;;;;;5093293;28;20042;-81
2022/03/30 02:22:24;;;;;;;35.97;14.83;;;4.50;99.90;;;;;;5093538;28;20032;-81
2022/03/30 02:24:51;;;;;;;25.67;13.50;;;4.40;99.90;;;;;;5113954;28;20054;-79
2022/03/30 02:27:22;;;;;;;30.30;14.10;;;4.40;99.90;;;;;;5099097;28;20031;-80
2022/03/30 02:29:50;;;;;;;28.53;13.47;;;4.40;99.90;;;;;;5115300;28;20032;-80
2022/03/30 02:32:18;;;;;;;26.03;12.17;;;4.30;99.90;;;;;;5121196;28;20042;-80
2022/03/30 02:34:45;;;;;;;30.50;14.17;;;4.30;99.90;;;;;;5115169;28;20028;-80
2022/03/30 02:37:13;;;;;;;34.40;12.53;;;4.30;99.90;;;;;;5122882;28;20035;-80
2022/03/30 02:39:40;;;;;;;27.63;13.00;;;4.30;99.90;;;;;;5116346;28;20038;-80
2022/03/30 02:42:07;;;;;;;34.27;14.37;;;4.20;99.90;;;;;;5101146;27;20035;-81
2022/03/30 02:44:37;;;;;;;30.53;13.37;;;4.20;99.90;;;;;;5115236;27;20038;-81
2022/03/30 02:47:05;;;;;;;26.27;12.67;;;4.20;99.90;;;;;;5083750;28;20402;-80
2022/03/30 02:49:32;;;;;;;33.40;14.30;;;4.20;99.90;;;;;;5099684;28;20039;-80
2022/03/30 02:51:58;;;;;;;31.20;13.53;;;4.20;99.90;;;;;;5124987;27;20034;-81
2022/03/30 02:54:25;;;;;;;31.77;16.03;;;4.20;99.90;;;;;;5066779;27;20055;-80
2022/03/30 02:56:52;;;;;;;41.57;17.67;;;4.20;99.90;;;;;;5086509;27;20034;-81
2022/03/30 02:59:19;;;;;;;32.33;12.87;;;4.10;99.90;;;;;;5095919;28;20528;-80
2022/03/30 03:01:45;;;;;;;35.80;16.40;;;4.10;99.90;;;;;;5079771;28;20043;-81
2022/03/30 03:04:12;;;;;;;33.33;14.23;;;4.10;99.90;;;;;;5050017;27;20397;-80
2022/03/30 03:06:38;;;;;;;34.00;14.57;;;4.10;99.90;;;;;;5097077;27;20054;-80
2022/03/30 03:09:04;;;;;;;30.63;14.53;;;4.00;99.90;;;;;;5096236;28;20037;-81
2022/03/30 03:11:31;;;;;;;27.93;13.80;;;4.00;99.90;;;;;;5116645;27;20719;-80
2022/03/30 03:13:57;;;;;;;35.47;14.97;;;4.00;99.90;;;;;;5117121;27;20038;-81
2022/03/30 03:16:24;;;;;;;28.80;13.83;;;4.00;99.90;;;;;;5094957;28;20047;-81
2022/03/30 03:18:50;;;;;;;29.37;12.90;;;4.00;99.90;;;;;;5082217;28;20407;-81
2022/03/30 03:21:17;;;;;;;25.87;11.97;;;3.90;99.90;;;;;;5078098;28;20399;-81
2022/03/30 03:23:43;;;;;;;30.53;12.90;;;3.90;99.90;;;;;;5077597;28;20043;-81
2022/03/30 03:26:10;;;;;;;31.27;13.30;;;3.90;99.90;;;;;;5076463;28;20039;-81
2022/03/30 03:28:36;;;;;;;36.37;14.40;;;3.90;99.90;;;;;;5113134;28;20043;-81
2022/03/30 03:31:03;;;;;;;31.37;14.97;;;3.90;99.90;;;;;;5078655;28;20040;-81
2022/03/30 03:33:29;;;;;;;28.13;13.73;;;3.90;99.90;;;;;;5111273;27;20040;-81
2022/03/30 03:35:56;;;;;;;33.57;13.43;;;3.80;99.90;;;;;;5094837;28;20044;-81
2022/03/30 03:38:22;;;;;;;34.10;16.33;;;3.80;99.90;;;;;;5113428;28;20027;-81
2022/03/30 03:40:48;;;;;;;29.70;13.63;;;3.80;99.90;;;;;;5081086;28;20034;-81
2022/03/30 03:43:15;;;;;;;29.43;15.87;;;3.80;99.90;;;;;;5095523;28;20386;-81
2022/03/30 03:45:41;;;;;;;34.43;13.43;;;3.80;99.90;;;;;;5094857;27;20051;-80
2022/03/30 03:48:11;;;;;;;30.33;13.87;;;3.80;99.90;;;;;;5094811;28;20036;-81
2022/03/30 03:50:37;;;;;;;30.17;12.97;;;3.80;99.90;;;;;;5113002;28;20494;-81
2022/03/30 03:53:04;;;;;;;30.23;15.17;;;3.80;99.90;;;;;;5062370;27;20047;-81
2022/03/30 03:55:33;;;;;;;28.87;14.13;;;3.80;99.90;;;;;;5096006;28;20040;-76
2022/03/30 03:58:00;;;;;;;32.43;14.63;;;3.80;99.90;;;;;;5076632;27;20024;-76
2022/03/30 04:00:27;;;;;;;29.67;13.80;;;3.80;99.90;;;;;;5119944;27;20027;-76
2022/03/30 04:02:53;;;;;;;30.27;12.90;;;3.70;99.90;;;;;;5109473;27;20036;-76
2022/03/30 04:05:20;;;;;;;26.30;12.80;;;3.70;99.90;;;;;;5113336;27;20050;-76
2022/03/30 04:07:46;;;;;;;21.60;11.47;;;3.70;99.90;;;;;;5113442;27;20042;-76
2022/03/30 04:10:15;;;;;;;23.43;11.30;;;3.70;99.90;;;;;;5112167;27;20023;-76
2022/03/30 04:12:41;;;;;;;23.43;11.63;;;3.70;99.90;;;;;;5116999;27;20043;-76
2022/03/30 04:15:08;;;;;;;29.07;14.97;;;3.60;99.90;;;;;;5097120;28;20048;-76
2022/03/30 04:17:42;;;;;;;24.13;12.20;;;3.60;99.90;;;;;;5096574;27;20036;-76
2022/03/30 04:20:10;;;;;;;32.43;15.33;;;3.60;99.90;;;;;;5112658;27;20375;-79
2022/03/30 04:22:36;;;;;;;23.60;12.17;;;3.60;99.90;;;;;;5060444;28;20036;-79
2022/03/30 04:25:04;;;;;;;25.93;12.57;;;3.60;99.90;;;;;;5094938;28;20035;-79
2022/03/30 04:27:31;;;;;;;25.73;11.27;;;3.60;99.90;;;;;;5094154;28;20031;-80
2022/03/30 04:29:57;;;;;;;26.10;11.97;;;3.60;99.90;;;;;;5096899;28;20046;-79
2022/03/30 04:32:24;;;;;;;22.57;12.27;;;3.50;99.90;;;;;;5080002;28;20429;-80
2022/03/30 04:34:50;;;;;;;30.17;13.77;;;3.50;99.90;;;;;;5110471;27;20027;-80
2022/03/30 04:37:17;;;;;;;28.23;12.20;;;3.40;99.90;;;;;;5110602;28;20448;-80
2022/03/30 04:39:43;;;;;;;35.17;14.37;;;3.40;99.90;;;;;;5080258;27;20039;-80
2022/03/30 04:42:13;;;;;;;32.47;13.57;;;3.50;99.90;;;;;;5096156;28;20038;-81
2022/03/30 04:44:41;;;;;;;26.77;13.33;;;3.40;99.90;;;;;;5094425;28;20482;-81
2022/03/30 04:47:08;;;;;;;27.13;13.73;;;3.40;99.90;;;;;;5093986;28;20031;-81
2022/03/30 04:49:34;;;;;;;36.80;15.33;;;3.30;99.90;;;;;;5114067;27;20031;-81
2022/03/30 04:52:01;;;;;;;34.07;14.17;;;3.30;99.90;;;;;;5061058;28;20032;-79
2022/03/30 04:54:27;;;;;;;28.70;14.30;;;3.30;99.90;;;;;;5080398;28;20383;-80
2022/03/30 04:56:56;;;;;;;31.00;16.23;;;3.30;99.90;;;;;;5092528;28;20059;-80
2022/03/30 04:59:23;;;;;;;36.53;16.40;;;3.30;99.90;;;;;;5078411;27;20041;-78
2022/03/30 05:01:50;;;;;;;28.87;13.43;;;3.30;99.90;;;;;;5087305;27;20034;-77
2022/03/30 05:04:16;;;;;;;27.97;13.57;;;3.30;99.90;;;;;;5096255;28;20104;-77
2022/03/30 05:06:43;;;;;;;24.10;12.30;;;3.20;99.90;;;;;;5091149;28;20035;-77
2022/03/30 05:09:11;;;;;;;25.27;11.43;;;3.20;99.90;;;;;;5080185;27;20046;-77
2022/03/30 05:11:39;;;;;;;26.80;12.00;;;3.20;99.90;;;;;;5122520;27;20061;-77
2022/03/30 05:14:06;;;;;;;23.93;11.73;;;3.20;99.90;;;;;;5093912;28;20050;-78
2022/03/30 05:16:34;;;;;;;18.40;10.30;;;3.20;99.90;;;;;;5114012;27;20038;-80
2022/03/30 05:19:02;;;;;;;22.40;11.00;;;3.10;99.90;;;;;;5094311;28;20039;-80
2022/03/30 05:21:29;;;;;;;27.63;11.57;;;3.20;99.90;;;;;;5077748;28;20745;-79
2022/03/30 05:23:55;;;;;;;21.33;10.40;;;3.10;99.90;;;;;;5116001;27;20512;-78
2022/03/30 05:26:22;;;;;;;23.90;10.63;;;3.20;99.90;;;;;;5079729;27;20474;-78
2022/03/30 05:28:48;;;;;;;20.43;10.20;;;3.10;99.90;;;;;;5079221;28;20050;-78
2022/03/30 05:31:15;;;;;;;21.47;12.07;;;3.10;99.90;;;;;;5082836;27;20042;-77
2022/03/30 05:33:41;;;;;;;21.57;10.73;;;3.10;99.90;;;;;;5097202;28;20032;-77
2022/03/30 05:36:07;;;;;;;18.83;10.57;;;3.10;99.90;;;;;;5066469;27;20381;-77
2022/03/30 05:38:34;;;;;;;20.90;9.63;;;3.20;99.90;;;;;;5095207;27;20028;-77
2022/03/30 05:41:02;;;;;;;19.20;8.90;;;3.20;99.90;;;;;;5096439;27;20028;-77
2022/03/30 05:43:28;;;;;;;16.10;8.00;;;3.20;99.90;;;;;;5082840;28;20035;-76
2022/03/30 05:45:55;;;;;;;30.83;13.50;;;3.30;99.90;;;;;;5114574;27;20379;-77
2022/03/30 05:48:21;;;;;;;21.80;10.90;;;3.30;99.90;;;;;;5112967;27;20038;-77
2022/03/30 05:50:51;;;;;;;26.10;11.27;;;3.30;99.90;;;;;;5096899;28;20035;-76
2022/03/30 05:53:18;;;;;;;24.33;11.17;;;3.40;99.90;;;;;;5075799;28;20036;-77
2022/03/30 05:56:04;;;;;;;24.30;11.33;;;3.40;99.90;;;;;;5112034;28;20541;-76
2022/03/30 05:58:43;;;;;;;22.20;10.90;;;3.50;99.90;;;;;;5099925;28;20020;-77
2022/03/30 06:01:10;;;;;;;32.43;15.10;;;3.60;99.90;;;;;;5073505;28;21334;-76
2022/03/30 06:03:37;;;;;;;30.83;14.93;;;3.60;99.90;;;;;;5074799;28;20051;-77
2022/03/30 06:06:05;;;;;;;32.57;15.10;;;3.60;99.90;;;;;;5109231;28;20042;-81
2022/03/30 06:08:32;;;;;;;27.03;13.47;;;3.70;99.90;;;;;;5093543;28;20035;-80
2022/03/30 06:11:01;;;;;;;23.37;12.17;;;3.70;99.90;;;;;;5110311;28;20039;-79
2022/03/30 06:13:28;;;;;;;25.97;11.87;;;3.80;99.90;;;;;;5098474;28;20054;-79
2022/03/30 06:15:54;;;;;;;27.20;11.87;;;3.80;99.90;;;;;;5111345;27;20521;-79
2022/03/30 06:18:21;;;;;;;23.67;12.77;;;3.90;99.90;;;;;;5116707;27;20032;-79
2022/03/30 06:20:48;;;;;;;25.73;13.23;;;3.90;99.90;;;;;;5097168;28;20049;-80
2022/03/30 06:23:14;;;;;;;23.70;12.27;;;4.00;99.90;;;;;;5116473;27;20039;-80
2022/03/30 06:25:41;;;;;;;29.07;14.03;;;4.10;99.90;;;;;;5112432;27;20037;-79
2022/03/30 06:28:07;;;;;;;29.30;13.27;;;4.20;99.90;;;;;;5116586;27;20398;-79
2022/03/30 06:30:34;;;;;;;32.10;14.83;;;4.30;99.90;;;;;;5116311;27;20047;-80
2022/03/30 06:33:01;;;;;;;28.67;13.93;;;4.40;99.90;;;;;;5116095;27;20478;-81
2022/03/30 06:35:27;;;;;;;28.37;13.07;;;4.50;99.90;;;;;;5099663;28;20039;-80
2022/03/30 06:37:54;;;;;;;19.20;10.57;;;4.60;99.90;;;;;;5112986;27;20991;-80
2022/03/30 06:40:20;;;;;;;24.37;12.37;;;4.70;99.90;;;;;;5119970;27;20031;-79
2022/03/30 06:42:48;;;;;;;28.67;12.80;;;4.80;99.90;;;;;;5096564;27;20033;-80
2022/03/30 06:45:15;;;;;;;28.13;12.47;;;4.90;99.90;;;;;;5115946;27;20035;-80
2022/03/30 06:47:41;;;;;;;25.20;11.77;;;5.10;99.90;;;;;;5101132;27;20031;-79
2022/03/30 06:50:08;;;;;;;24.57;11.87;;;5.20;99.90;;;;;;5102865;27;20037;-80
2022/03/30 06:52:35;;;;;;;28.70;12.90;;;5.40;99.90;;;;;;5096762;27;20036;-79
2022/03/30 06:55:05;;;;;;;25.93;11.70;;;5.50;99.90;;;;;;5098496;27;20040;-80
2022/03/30 06:57:31;;;;;;;26.63;13.03;;;5.70;99.90;;;;;;5085099;27;20381;-80
2022/03/30 06:59:58;;;;;;;25.13;13.17;;;5.80;99.90;;;;;;5117994;27;20036;-80
2022/03/30 07:02:25;;;;;;;31.70;14.00;;;5.90;99.90;;;;;;5116440;27;20054;-81
2022/03/30 07:04:51;;;;;;;23.43;12.33;;;6.00;99.90;;;;;;5080802;28;20040;-81
2022/03/30 07:10:16;;;;;;;27.40;11.13;;;6.10;99.90;;;;;;5103037;27;20047;-80
2022/03/30 07:12:44;;;;;;;24.60;12.50;;;6.20;99.90;;;;;;5115834;27;20375;-80
2022/03/30 07:15:11;;;;;;;24.70;13.03;;;6.30;99.90;;;;;;5078546;28;20043;-80
2022/03/30 07:17:50;;;;;;;25.17;11.43;;;6.50;99.90;;;;;;5118722;27;20039;-80
2022/03/30 07:20:19;;;;;;;18.17;9.98;;;6.60;99.90;;;;;;5113410;27;20028;-80
2022/03/30 07:22:47;;;;;;;21.48;11.43;;;6.70;99.90;;;;;;5080827;27;20481;-80
2022/03/30 07:25:15;;;;;;;22.30;11.32;;;6.80;99.90;;;;;;5117565;27;20036;-79
2022/03/30 07:27:44;;;;;;;22.40;11.52;;;6.90;99.90;;;;;;5102618;27;20039;-79
2022/03/30 07:30:12;;;;;;;22.08;11.40;;;7.00;99.90;;;;;;5098351;27;20043;-79
2022/03/30 07:32:40;;;;;;;22.27;10.75;;;7.20;99.90;;;;;;5103937;27;20425;-80
2022/03/30 07:35:09;;;;;;;26.35;10.75;;;7.30;99.90;;;;;;5116396;27;20032;-80
2022/03/30 07:37:38;;;;;;;21.48;10.20;;;7.50;99.90;;;;;;5095009;28;20039;-80
2022/03/30 07:40:07;;;;;;;21.88;12.38;;;7.70;99.90;;;;;;5118368;27;20388;-80
2022/03/30 07:42:34;;;;;;;26.65;11.85;;;7.80;99.90;;;;;;5118134;27;20027;-80
2022/03/30 07:45:02;;;;;;;21.95;12.05;;;8.00;99.90;;;;;;5116871;27;20049;-79
2022/03/30 07:47:29;;;;;;;23.60;12.60;;;8.10;99.90;;;;;;5110787;27;20039;-80
2022/03/30 07:49:56;;;;;;;29.95;13.82;;;8.30;99.90;;;;;;5097521;28;20082;-81
2022/03/30 07:52:22;;;;;;;34.35;15.13;;;8.30;99.90;;;;;;5120625;27;20030;-81
2022/03/30 07:54:52;;;;;;;28.77;15.55;;;8.40;99.90;;;;;;5080654;27;20044;-81
2022/03/30 07:57:26;;;;;;;31.85;16.30;;;8.40;99.90;;;;;;5113591;27;20043;-81
2022/03/30 07:59:54;;;;;;;24.58;14.40;;;8.40;99.90;;;;;;5114661;27;20490;-80
2022/03/30 08:02:24;;;;;;;24.92;13.57;;;8.60;99.90;;;;;;5069788;27;20486;-80
2022/03/30 08:04:54;;;;;;;27.85;13.52;;;8.70;99.90;;;;;;5116508;27;20395;-80
2022/03/30 08:07:22;;;;;;;34.83;15.88;;;8.90;99.90;;;;;;5077105;28;20044;-84
2022/03/30 08:09:50;;;;;;;32.75;14.10;;;9.00;99.90;;;;;;5076603;28;20047;-85
2022/03/30 08:12:20;;;;;;;34.00;15.05;;;9.00;99.90;;;;;;5094745;28;20063;-83
2022/03/30 08:14:48;;;;;;;31.55;14.05;;;9.00;99.90;;;;;;5110230;28;20043;-85
2022/03/30 08:17:16;;;;;;;37.72;14.38;;;9.00;99.90;;;;;;5095164;28;20130;-80
2022/03/30 08:19:44;;;;;;;35.72;15.68;;;9.00;99.90;;;;;;5110235;27;20035;-81
2022/03/30 08:22:26;;;;;;;30.23;14.02;;;9.10;99.90;;;;;;5111143;27;20102;-82
2022/03/30 08:25:00;;;;;;;30.02;14.20;;;9.10;99.90;;;;;;5095240;27;20355;-82
2022/03/30 08:27:31;;;;;;;29.95;14.05;;;9.10;99.90;;;;;;5109447;28;20498;-82
2022/03/30 08:29:58;;;;;;;24.02;12.43;;;9.10;99.90;;;;;;5112938;27;20039;-83
2022/03/30 08:32:25;;;;;;;28.15;13.57;;;9.20;99.90;;;;;;5097681;27;20047;-80
2022/03/30 08:34:53;;;;;;;29.88;13.60;;;9.50;99.90;;;;;;5111595;27;20044;-80
2022/03/30 08:37:20;;;;;;;28.30;12.98;;;9.70;99.90;;;;;;5112293;27;20042;-79
2022/03/30 08:39:48;;;;;;;27.13;12.38;;;10.00;99.90;;;;;;5113547;27;20038;-79
2022/03/30 08:42:17;;;;;;;28.05;14.82;;;10.30;99.90;;;;;;5112612;27;20034;-82
2022/03/30 08:44:49;;;;;;;35.72;17.42;;;10.60;99.90;;;;;;5113814;27;20035;-80
2022/03/30 08:47:16;;;;;;;49.42;22.33;;;10.70;99.90;;;;;;5113797;27;20494;-80
2022/03/30 08:49:45;;;;;;;42.90;19.77;;;10.70;99.90;;;;;;5111137;27;20028;-79
2022/03/30 08:52:11;;;;;;;36.83;18.42;;;10.70;99.90;;;;;;5098539;27;20489;-82
2022/03/30 08:54:43;;;;;;;38.80;15.45;;;10.80;99.90;;;;;;5112425;27;20364;-82
2022/03/30 08:57:10;;;;;;;33.40;15.03;;;10.80;99.90;;;;;;5075790;28;20047;-80
2022/03/30 08:59:37;;;;;;;40.28;19.33;;;10.70;99.90;;;;;;5075698;27;20304;-80
2022/03/30 09:02:04;;;;;;;33.38;16.80;;;10.80;99.90;;;;;;5098366;28;20043;-80
2022/03/30 09:04:31;;;;;;;20.95;12.57;;;10.80;99.90;;;;;;5111062;27;20040;-80
2022/03/30 09:06:59;;;;;;;25.65;13.52;;;10.90;99.90;;;;;;5111925;27;20407;-80
2022/03/30 09:09:32;;;;;;;26.38;12.50;;;10.90;99.90;;;;;;5109453;27;20024;-81
2022/03/30 09:12:00;;;;;;;25.90;12.85;;;10.80;99.90;;;;;;5113153;27;20466;-85
2022/03/30 09:14:32;;;;;;;22.70;11.85;;;10.80;99.90;;;;;;5092078;28;20036;-82
2022/03/30 09:17:03;;;;;;;18.23;8.63;;;10.50;99.90;;;;;;5110332;27;20378;-83
2022/03/30 09:19:36;;;;;;;17.90;10.43;;;10.40;99.90;;;;;;5101333;27;20040;-82
2022/03/30 09:22:05;;;;;;;16.58;9.52;;;10.50;99.90;;;;;;5075032;28;20122;-83
2022/03/30 09:24:34;;;;;;;17.83;9.82;;;10.70;99.90;;;;;;5076336;28;20036;-82
2022/03/30 09:27:02;;;;;;;19.33;9.55;;;10.80;99.90;;;;;;5090747;28;21242;-84
2022/03/30 09:29:33;;;;;;;16.27;9.88;;;11.00;99.90;;;;;;5110119;28;20034;-83
2022/03/30 09:32:06;;;;;;;19.52;11.10;;;11.10;99.90;;;;;;5100625;28;20024;-83
2022/03/30 09:34:47;;;;;;;18.52;11.77;;;11.20;99.90;;;;;;5125194;28;20054;-82
2022/03/30 09:37:17;;;;;;;17.20;11.18;;;11.20;99.90;;;;;;5127495;27;20042;-85
2022/03/30 09:39:49;;;;;;;15.40;9.60;;;11.00;99.90;;;;;;5111469;27;20058;-85
2022/03/30 09:42:16;;;;;;;16.75;9.65;;;10.90;99.90;;;;;;5111491;27;20040;-86
2022/03/30 09:44:48;;;;;;;14.52;8.65;;;10.90;99.90;;;;;;5109509;27;20055;-80
2022/03/30 09:47:21;;;;;;;14.73;9.02;;;11.00;99.90;;;;;;5113236;27;20382;-80
2022/03/30 09:49:52;;;;;;;16.42;9.30;;;11.00;99.90;;;;;;5111748;27;20036;-80
2022/03/30 09:52:38;;;;;;;13.23;8.10;;;11.10;99.90;;;;;;5092683;28;20024;-83
2022/03/30 09:55:06;;;;;;;9.75;6.00;;;11.20;99.80;;;;;;5114888;28;20390;-83
2022/03/30 09:57:41;;;;;;;10.43;6.53;;;11.20;99.60;;;;;;5093484;28;20409;-85
2022/03/30 10:00:20;;;;;;;13.05;6.30;;;11.30;99.50;;;;;;5108642;28;20031;-87
2022/03/30 10:02:54;;;;;;;9.73;4.93;;;11.50;99.00;;;;;;5081126;28;20059;-85
2022/03/30 10:05:29;;;;;;;7.25;5.15;;;11.70;98.80;;;;;;5100711;28;20378;-85
2022/03/30 10:08:15;;;;;;;9.57;5.38;;;11.90;98.20;;;;;;5098854;28;20102;-84
2022/03/30 10:10:43;;;;;;;8.30;4.05;;;12.10;97.30;;;;;;5092793;28;20370;-84
2022/03/30 10:13:09;;;;;;;8.15;3.45;;;12.20;96.90;;;;;;5110400;28;20397;-83
2022/03/30 10:15:41;;;;;;;6.43;4.32;;;12.30;96.80;;;;;;5111770;28;20031;-82
2022/03/30 10:18:08;;;;;;;6.93;3.97;;;12.50;96.20;;;;;;5092963;28;20042;-84
2022/03/30 10:20:37;;;;;;;13.27;8.32;;;12.60;95.10;;;;;;5091472;28;20046;-83
2022/03/30 10:23:23;;;;;;;14.38;9.32;;;13.00;94.90;;;;;;5095605;28;20128;-82
2022/03/30 10:26:21;;;;;;;8.43;5.10;;;13.30;94.30;;;;;;5108585;28;20517;-81
2022/03/30 10:29:11;;;;;;;13.82;5.93;;;13.70;93.20;;;;;;5090763;28;20394;-77
2022/03/30 10:31:41;;;;;;;14.90;9.73;;;13.80;91.90;;;;;;5079792;28;20062;-76
2022/03/30 10:34:27;;;;;;;14.52;6.78;;;13.90;91.30;;;;;;5093309;28;20434;-77
2022/03/30 10:37:09;;;;;;;9.85;5.93;;;13.80;90.80;;;;;;5094484;28;20043;-78
2022/03/30 10:39:54;;;;;;;9.75;4.95;;;13.80;90.90;;;;;;5111328;28;20024;-77
2022/03/30 10:42:20;;;;;;;9.25;5.70;;;14.00;90.40;;;;;;5091097;28;20494;-78
2022/03/30 10:44:59;;;;;;;11.32;5.88;;;14.30;89.20;;;;;;5095283;28;20043;-79
2022/03/30 10:47:29;;;;;;;12.30;5.75;;;14.40;88.00;;;;;;5091226;28;20048;-79
2022/03/30 10:49:59;;;;;;;10.25;4.88;;;14.60;87.40;;;;;;5092091;28;20048;-82
2022/03/30 10:52:32;;;;;;;10.80;5.15;;;14.80;86.80;;;;;;5087568;28;20047;-77
2022/03/30 10:55:13;;;;;;;8.45;5.32;;;15.10;85.90;;;;;;5080356;28;20415;-78
2022/03/30 10:57:50;;;;;;;11.90;6.72;;;15.50;83.20;;;;;;5112056;28;20157;-78
2022/03/30 11:00:22;;;;;;;9.07;4.90;;;15.60;82.00;;;;;;5105249;28;20471;-84
2022/03/30 11:02:49;;;;;;;;;;;15.80;81.20;;;;;;5095361;28;20046;-83
2022/03/30 11:05:24;;;;;;;11.07;5.20;;;15.80;80.70;;;;;;5078706;28;19908;-83
2022/03/30 11:07:51;;;;;;;9.32;4.88;;;15.70;78.90;;;;;;5094066;28;20032;-83
2022/03/30 11:10:29;;;;;;;7.25;4.50;;;15.50;77.70;;;;;;5093553;28;20486;-76
2022/03/30 11:13:02;;;;;;;11.93;6.43;;;15.70;77.40;;;;;;5092807;27;20027;-76
2022/03/30 11:15:30;;;;;;;7.75;5.53;;;16.00;76.80;;;;;;5108795;27;20395;-76
2022/03/30 11:18:21;;;;;;;10.00;4.57;;;16.40;76.00;;;;;;5111388;27;20038;-76
2022/03/30 11:21:11;;;;;;;8.02;5.45;;;16.80;74.20;;;;;;5095121;27;20373;-77
2022/03/30 11:23:53;;;;;;;6.80;4.57;;;17.10;71.00;;;;;;5095585;27;20062;-80
2022/03/30 11:26:21;;;;;;;4.78;3.80;;;16.80;71.00;;;;;;5077664;27;20031;-79
2022/03/30 11:28:47;;;;;;;9.38;3.95;;;16.40;70.50;;;;;;5075033;27;20497;-77
2022/03/30 11:31:24;;;;;;;10.68;7.30;;;16.00;71.80;;;;;;5063432;27;20032;-76
2022/03/30 11:34:42;;;;;;;10.85;5.57;;;16.00;72.00;;;;;;5063246;27;20028;-86
2022/03/30 11:37:09;;;;;;;5.72;3.83;;;15.90;72.10;;;;;;5077217;28;20379;-82
2022/03/30 11:39:38;;;;;;;5.63;3.97;;;16.20;73.00;;;;;;5079539;28;20046;-84
2022/03/30 11:42:04;;;;;;;7.05;5.30;;;16.60;71.70;;;;;;5114681;27;20062;-83
2022/03/30 11:47:18;;;;;;;8.55;4.55;;;16.20;70.20;;;;;;5096813;27;20043;-83
2022/03/30 11:49:55;;;;;;;6.90;4.60;;;15.80;70.10;;;;;;5113441;27;20024;-82
2022/03/30 11:52:23;;;;;;;6.50;4.43;;;15.50;70.60;;;;;;5112060;27;20024;-85
2022/03/30 11:54:51;;;;;;;7.28;4.80;;;15.30;71.20;;;;;;5091303;28;20035;-82
2022/03/30 11:57:19;;;;;;;5.20;3.95;;;15.20;71.10;;;;;;5092125;28;20036;-82
2022/03/30 12:00:00;;;;;;;7.50;3.30;;;15.10;71.30;;;;;;5097322;28;20039;-80
2022/03/30 12:02:30;;;;;;;7.47;4.57;;;15.10;72.20;;;;;;5111135;27;20371;-81
2022/03/30 12:04:57;;;;;;;8.40;5.20;;;15.50;72.00;;;;;;5111708;27;20034;-81
2022/03/30 12:07:24;;;;;;;7.13;5.07;;;15.80;71.40;;;;;;5109700;27;20039;-81
2022/03/30 12:09:53;;;;;;;6.85;3.95;;;15.80;70.60;;;;;;5081024;27;20043;-83
2022/03/30 12:12:31;;;;;;;8.00;4.47;;;15.50;70.40;;;;;;5095768;27;20032;-84
2022/03/30 12:14:59;;;;;;;6.20;4.20;;;15.30;70.50;;;;;;5096793;27;20478;-82
2022/03/30 12:17:27;;;;;;;8.13;4.75;;;14.90;72.20;;;;;;5115848;27;20051;-82
2022/03/30 12:19:54;;;;;;;9.00;4.72;;;14.70;72.10;;;;;;5098339;27;20047;-82
2022/03/30 12:22:22;;;;;;;5.80;4.13;;;14.60;72.80;;;;;;5100871;27;20062;-82
2022/03/30 12:24:49;;;;;;;7.82;4.95;;;14.60;72.80;;;;;;5093765;27;20038;-83
2022/03/30 12:27:15;;;;;;;11.98;6.10;;;14.60;73.00;;;;;;5078346;27;20031;-81
2022/03/30 12:29:44;;;;;;;7.20;5.20;;;14.60;73.20;;;;;;5116483;27;20036;-82
2022/03/30 12:32:15;;;;;;;6.65;4.53;;;14.70;73.50;;;;;;5099769;27;20027;-82
2022/03/30 12:34:43;;;;;;;7.50;5.18;;;14.90;73.60;;;;;;5098002;28;20039;-81
2022/03/30 12:37:11;;;;;;;9.57;5.22;;;15.50;73.00;;;;;;5102195;28;20031;-81
2022/03/30 12:39:44;;;;;;;5.65;4.40;;;15.90;71.10;;;;;;5110830;27;20482;-82
2022/03/30 12:42:14;;;;;;;5.80;4.63;;;16.00;70.10;;;;;;5096302;27;20043;-81
2022/03/30 12:44:48;;;;;;;7.53;4.10;;;15.80;70.40;;;;;;5097818;27;20054;-81
2022/03/30 12:47:36;;;;;;;4.82;3.13;;;15.70;70.00;;;;;;5093133;27;20032;-82
2022/03/30 12:50:11;;;;;;;4.03;3.28;;;16.00;70.00;;;;;;5110896;27;20058;-81
2022/03/30 12:52:49;;;;;;;9.18;3.55;;;16.20;70.10;;;;;;5112752;27;20390;-82
2022/03/30 12:55:28;;;;;;;3.92;3.53;;;16.60;69.90;;;;;;5115033;27;20046;-81
2022/03/30 12:57:58;;;;;;;6.47;3.80;;;17.10;67.60;;;;;;5111905;27;20394;-83